Terminal Aerodrome Forecast
Issued by NWS

Home | Current Version | Previous Version | Graphics & Text | Print | Product List | Glossary On
Versions: 1 2 3 4 5 6 7 8 9 10 11 12 13 14 15 16 17 18 19 20 21 22 23 24 25 26 27 28 29 30 31 32
000
FTUS43 KLOT 250900 AAA
TAFORD
TAF AMD
KORD 250901Z 2509/2612 17005KT P6SM SCT250
     FM251400 21010KT P6SM SCT120 BKN200
     FM251800 20011G16KT P6SM SCT080 BKN120
     FM260000 19010KT P6SM VCSH BKN060 PROB30 2603/2607 4SM TSRA
      OVC040CB
     FM260800 19009KT P6SM BKN040=

USA.gov is the U.S. government's official web portal to all federal, state and local government web resources and services.